sensor_id;sensor_type;location;lat;lon;timestamp;P1;durP1;ratioP1;P2;durP2;ratioP2
21402;SDS011;10862;51.886;17.078;2022-11-20T00:01:16;30.20;;;19.93;;
21402;SDS011;10862;51.886;17.078;2022-11-20T00:03:43;30.50;;;19.80;;
21402;SDS011;10862;51.886;17.078;2022-11-20T00:06:10;25.47;;;17.90;;
21402;SDS011;10862;51.886;17.078;2022-11-20T00:08:37;31.47;;;19.23;;
21402;SDS011;10862;51.886;17.078;2022-11-20T00:11:04;31.37;;;20.07;;
21402;SDS011;10862;51.886;17.078;2022-11-20T00:13:40;21.60;;;17.53;;
21402;SDS011;10862;51.886;17.078;2022-11-20T00:16:07;33.60;;;19.83;;
21402;SDS011;10862;51.886;17.078;2022-11-20T00:18:35;28.60;;;19.47;;
21402;SDS011;10862;51.886;17.078;2022-11-20T00:21:05;35.30;;;19.60;;
21402;SDS011;10862;51.886;17.078;2022-11-20T00:23:33;36.47;;;18.97;;
21402;SDS011;10862;51.886;17.078;2022-11-20T00:26:05;31.47;;;19.37;;
21402;SDS011;10862;51.886;17.078;2022-11-20T00:28:32;40.17;;;20.67;;
21402;SDS011;10862;51.886;17.078;2022-11-20T00:31:01;32.23;;;19.30;;
21402;SDS011;10862;51.886;17.078;2022-11-20T00:33:45;35.23;;;19.80;;
21402;SDS011;10862;51.886;17.078;2022-11-20T00:36:16;38.27;;;18.47;;
21402;SDS011;10862;51.886;17.078;2022-11-20T00:38:43;38.83;;;17.97;;
21402;SDS011;10862;51.886;17.078;2022-11-20T00:41:11;31.63;;;17.57;;
21402;SDS011;10862;51.886;17.078;2022-11-20T00:43:41;29.23;;;17.37;;
21402;SDS011;10862;51.886;17.078;2022-11-20T00:46:08;28.83;;;18.20;;
21402;SDS011;10862;51.886;17.078;2022-11-20T00:48:44;34.47;;;18.50;;
21402;SDS011;10862;51.886;17.078;2022-11-20T00:51:13;34.07;;;18.93;;
21402;SDS011;10862;51.886;17.078;2022-11-20T00:53:41;50.90;;;23.83;;
21402;SDS011;10862;51.886;17.078;2022-11-20T00:56:09;61.63;;;26.17;;
21402;SDS011;10862;51.886;17.078;2022-11-20T00:58:37;41.97;;;18.43;;
21402;SDS011;10862;51.886;17.078;2022-11-20T01:01:14;27.93;;;16.33;;
21402;SDS011;10862;51.886;17.078;2022-11-20T01:03:49;31.33;;;18.57;;
21402;SDS011;10862;51.886;17.078;2022-11-20T01:08:44;29.13;;;18.60;;
21402;SDS011;10862;51.886;17.078;2022-11-20T01:11:11;30.17;;;18.57;;
21402;SDS011;10862;51.886;17.078;2022-11-20T01:13:41;30.57;;;18.53;;
21402;SDS011;10862;51.886;17.078;2022-11-20T01:16:09;29.33;;;17.50;;
21402;SDS011;10862;51.886;17.078;2022-11-20T01:18:35;25.57;;;16.93;;
21402;SDS011;10862;51.886;17.078;2022-11-20T01:21:03;30.00;;;18.13;;
21402;SDS011;10862;51.886;17.078;2022-11-20T01:23:31;33.30;;;17.57;;
21402;SDS011;10862;51.886;17.078;2022-11-20T01:25:59;26.97;;;17.57;;
21402;SDS011;10862;51.886;17.078;2022-11-20T01:28:35;29.47;;;17.70;;
21402;SDS011;10862;51.886;17.078;2022-11-20T01:31:01;35.23;;;18.47;;
21402;SDS011;10862;51.886;17.078;2022-11-20T01:33:34;30.03;;;19.20;;
21402;SDS011;10862;51.886;17.078;2022-11-20T01:36:04;26.97;;;17.37;;
21402;SDS011;10862;51.886;17.078;2022-11-20T01:38:30;31.07;;;17.73;;
21402;SDS011;10862;51.886;17.078;2022-11-20T01:40:56;38.87;;;19.50;;
21402;SDS011;10862;51.886;17.078;2022-11-20T01:43:22;31.67;;;18.67;;
21402;SDS011;10862;51.886;17.078;2022-11-20T01:48:42;36.43;;;20.67;;
21402;SDS011;10862;51.886;17.078;2022-11-20T01:51:19;35.37;;;18.53;;
21402;SDS011;10862;51.886;17.078;2022-11-20T01:53:48;35.47;;;20.17;;
21402;SDS011;10862;51.886;17.078;2022-11-20T01:56:16;38.47;;;21.40;;
21402;SDS011;10862;51.886;17.078;2022-11-20T01:58:44;35.17;;;19.07;;
21402;SDS011;10862;51.886;17.078;2022-11-20T02:01:14;33.80;;;20.13;;
21402;SDS011;10862;51.886;17.078;2022-11-20T02:03:40;33.33;;;20.00;;
21402;SDS011;10862;51.886;17.078;2022-11-20T02:08:48;33.77;;;18.87;;
21402;SDS011;10862;51.886;17.078;2022-11-20T02:11:13;28.13;;;17.60;;
21402;SDS011;10862;51.886;17.078;2022-11-20T02:13:39;31.83;;;17.67;;
21402;SDS011;10862;51.886;17.078;2022-11-20T02:16:10;37.27;;;19.03;;
21402;SDS011;10862;51.886;17.078;2022-11-20T02:18:54;34.57;;;17.70;;
21402;SDS011;10862;51.886;17.078;2022-11-20T02:21:24;33.93;;;17.87;;
21402;SDS011;10862;51.886;17.078;2022-11-20T02:24:04;27.37;;;18.30;;
21402;SDS011;10862;51.886;17.078;2022-11-20T02:26:38;31.10;;;18.67;;
21402;SDS011;10862;51.886;17.078;2022-11-20T02:29:31;29.10;;;17.40;;
21402;SDS011;10862;51.886;17.078;2022-11-20T02:32:01;31.13;;;18.87;;
21402;SDS011;10862;51.886;17.078;2022-11-20T02:34:28;34.60;;;18.17;;
21402;SDS011;10862;51.886;17.078;2022-11-20T02:36:53;30.87;;;20.43;;
21402;SDS011;10862;51.886;17.078;2022-11-20T02:39:21;36.37;;;20.37;;
21402;SDS011;10862;51.886;17.078;2022-11-20T02:41:50;37.17;;;19.43;;
21402;SDS011;10862;51.886;17.078;2022-11-20T02:44:18;35.33;;;19.77;;
21402;SDS011;10862;51.886;17.078;2022-11-20T02:46:44;34.67;;;19.00;;
21402;SDS011;10862;51.886;17.078;2022-11-20T02:49:10;39.73;;;20.13;;
21402;SDS011;10862;51.886;17.078;2022-11-20T02:51:36;33.17;;;20.40;;
21402;SDS011;10862;51.886;17.078;2022-11-20T02:54:01;33.03;;;17.70;;
21402;SDS011;10862;51.886;17.078;2022-11-20T02:56:27;25.13;;;17.40;;
21402;SDS011;10862;51.886;17.078;2022-11-20T02:58:52;27.17;;;16.20;;
21402;SDS011;10862;51.886;17.078;2022-11-20T03:01:18;33.27;;;20.87;;
21402;SDS011;10862;51.886;17.078;2022-11-20T03:03:43;43.77;;;20.80;;
21402;SDS011;10862;51.886;17.078;2022-11-20T03:06:09;37.47;;;18.93;;
21402;SDS011;10862;51.886;17.078;2022-11-20T03:08:35;21.37;;;13.93;;
21402;SDS011;10862;51.886;17.078;2022-11-20T03:11:04;35.50;;;19.27;;
21402;SDS011;10862;51.886;17.078;2022-11-20T03:13:31;39.57;;;19.97;;
21402;SDS011;10862;51.886;17.078;2022-11-20T03:15:57;43.13;;;20.63;;
21402;SDS011;10862;51.886;17.078;2022-11-20T03:18:23;37.80;;;20.03;;
21402;SDS011;10862;51.886;17.078;2022-11-20T03:20:48;33.93;;;19.30;;
21402;SDS011;10862;51.886;17.078;2022-11-20T03:23:14;30.53;;;17.90;;
21402;SDS011;10862;51.886;17.078;2022-11-20T03:25:39;30.30;;;19.30;;
21402;SDS011;10862;51.886;17.078;2022-11-20T03:28:05;36.37;;;20.03;;
21402;SDS011;10862;51.886;17.078;2022-11-20T03:30:30;35.53;;;20.13;;
21402;SDS011;10862;51.886;17.078;2022-11-20T03:32:56;29.67;;;16.83;;
21402;SDS011;10862;51.886;17.078;2022-11-20T03:35:21;31.83;;;19.13;;
21402;SDS011;10862;51.886;17.078;2022-11-20T03:37:47;35.80;;;19.63;;
21402;SDS011;10862;51.886;17.078;2022-11-20T03:40:13;25.40;;;16.40;;
21402;SDS011;10862;51.886;17.078;2022-11-20T03:42:38;37.37;;;20.10;;
21402;SDS011;10862;51.886;17.078;2022-11-20T03:45:10;18.60;;;13.37;;
21402;SDS011;10862;51.886;17.078;2022-11-20T03:47:37;39.33;;;18.27;;
21402;SDS011;10862;51.886;17.078;2022-11-20T03:50:03;32.17;;;15.80;;
21402;SDS011;10862;51.886;17.078;2022-11-20T03:52:29;37.93;;;20.13;;
21402;SDS011;10862;51.886;17.078;2022-11-20T03:54:54;33.07;;;17.53;;
21402;SDS011;10862;51.886;17.078;2022-11-20T03:57:20;26.97;;;16.63;;
21402;SDS011;10862;51.886;17.078;2022-11-20T03:59:45;21.87;;;14.07;;
21402;SDS011;10862;51.886;17.078;2022-11-20T04:02:11;26.33;;;17.20;;
21402;SDS011;10862;51.886;17.078;2022-11-20T04:04:36;28.47;;;17.20;;
21402;SDS011;10862;51.886;17.078;2022-11-20T04:07:02;31.13;;;18.13;;
21402;SDS011;10862;51.886;17.078;2022-11-20T04:09:28;30.17;;;18.40;;
21402;SDS011;10862;51.886;17.078;2022-11-20T04:11:54;36.47;;;21.17;;
21402;SDS011;10862;51.886;17.078;2022-11-20T04:14:19;27.20;;;17.03;;
21402;SDS011;10862;51.886;17.078;2022-11-20T04:16:45;15.83;;;12.77;;
21402;SDS011;10862;51.886;17.078;2022-11-20T04:19:11;34.70;;;18.97;;
21402;SDS011;10862;51.886;17.078;2022-11-20T04:21:39;36.97;;;20.73;;
21402;SDS011;10862;51.886;17.078;2022-11-20T04:24:05;37.47;;;19.43;;
21402;SDS011;10862;51.886;17.078;2022-11-20T04:26:31;30.97;;;19.83;;
21402;SDS011;10862;51.886;17.078;2022-11-20T04:28:58;32.23;;;18.40;;
21402;SDS011;10862;51.886;17.078;2022-11-20T04:31:27;24.33;;;16.90;;
21402;SDS011;10862;51.886;17.078;2022-11-20T04:33:54;35.27;;;20.47;;
21402;SDS011;10862;51.886;17.078;2022-11-20T04:36:24;25.63;;;17.33;;
21402;SDS011;10862;51.886;17.078;2022-11-20T04:38:51;24.70;;;17.07;;
21402;SDS011;10862;51.886;17.078;2022-11-20T04:41:18;30.93;;;19.97;;
21402;SDS011;10862;51.886;17.078;2022-11-20T04:43:48;21.13;;;16.20;;
21402;SDS011;10862;51.886;17.078;2022-11-20T04:46:19;32.77;;;19.40;;
21402;SDS011;10862;51.886;17.078;2022-11-20T04:48:45;37.93;;;19.73;;
21402;SDS011;10862;51.886;17.078;2022-11-20T04:51:12;31.23;;;19.37;;
21402;SDS011;10862;51.886;17.078;2022-11-20T04:53:38;27.17;;;17.40;;
21402;SDS011;10862;51.886;17.078;2022-11-20T04:56:04;31.73;;;18.17;;
21402;SDS011;10862;51.886;17.078;2022-11-20T04:58:31;29.17;;;17.10;;
21402;SDS011;10862;51.886;17.078;2022-11-20T05:01:03;17.53;;;13.47;;
21402;SDS011;10862;51.886;17.078;2022-11-20T05:03:31;33.77;;;19.40;;
21402;SDS011;10862;51.886;17.078;2022-11-20T05:05:59;35.03;;;21.20;;
21402;SDS011;10862;51.886;17.078;2022-11-20T05:08:26;29.87;;;22.37;;
21402;SDS011;10862;51.886;17.078;2022-11-20T05:10:52;32.07;;;22.23;;
21402;SDS011;10862;51.886;17.078;2022-11-20T05:13:17;38.07;;;22.67;;
21402;SDS011;10862;51.886;17.078;2022-11-20T05:15:43;36.30;;;21.57;;
21402;SDS011;10862;51.886;17.078;2022-11-20T05:18:08;34.37;;;21.40;;
21402;SDS011;10862;51.886;17.078;2022-11-20T05:20:34;30.63;;;19.13;;
21402;SDS011;10862;51.886;17.078;2022-11-20T05:23:01;29.20;;;18.60;;
21402;SDS011;10862;51.886;17.078;2022-11-20T05:25:27;35.60;;;19.50;;
21402;SDS011;10862;51.886;17.078;2022-11-20T05:27:52;37.40;;;21.60;;
21402;SDS011;10862;51.886;17.078;2022-11-20T05:30:18;38.53;;;23.13;;
21402;SDS011;10862;51.886;17.078;2022-11-20T05:32:44;33.77;;;23.20;;
21402;SDS011;10862;51.886;17.078;2022-11-20T05:35:09;40.00;;;22.33;;
21402;SDS011;10862;51.886;17.078;2022-11-20T05:37:35;36.93;;;21.37;;
21402;SDS011;10862;51.886;17.078;2022-11-20T05:40:00;25.03;;;18.27;;
21402;SDS011;10862;51.886;17.078;2022-11-20T05:42:26;33.00;;;21.70;;
21402;SDS011;10862;51.886;17.078;2022-11-20T05:45:00;25.30;;;19.73;;
21402;SDS011;10862;51.886;17.078;2022-11-20T05:47:31;37.40;;;21.43;;
21402;SDS011;10862;51.886;17.078;2022-11-20T05:49:58;22.67;;;17.60;;
21402;SDS011;10862;51.886;17.078;2022-11-20T05:52:24;32.63;;;22.63;;
21402;SDS011;10862;51.886;17.078;2022-11-20T05:54:52;44.13;;;23.40;;
21402;SDS011;10862;51.886;17.078;2022-11-20T05:57:18;81.90;;;32.27;;
21402;SDS011;10862;51.886;17.078;2022-11-20T05:59:43;90.90;;;35.90;;
21402;SDS011;10862;51.886;17.078;2022-11-20T06:02:09;33.67;;;21.40;;
21402;SDS011;10862;51.886;17.078;2022-11-20T06:04:34;37.13;;;22.47;;
21402;SDS011;10862;51.886;17.078;2022-11-20T06:07:00;38.53;;;22.77;;
21402;SDS011;10862;51.886;17.078;2022-11-20T06:09:26;30.03;;;19.87;;
21402;SDS011;10862;51.886;17.078;2022-11-20T06:11:51;31.63;;;18.07;;
21402;SDS011;10862;51.886;17.078;2022-11-20T06:14:17;36.93;;;18.80;;
21402;SDS011;10862;51.886;17.078;2022-11-20T06:16:42;34.77;;;18.87;;
21402;SDS011;10862;51.886;17.078;2022-11-20T06:19:08;33.27;;;18.57;;
21402;SDS011;10862;51.886;17.078;2022-11-20T06:21:33;37.93;;;21.13;;
21402;SDS011;10862;51.886;17.078;2022-11-20T06:23:59;36.03;;;20.17;;
21402;SDS011;10862;51.886;17.078;2022-11-20T06:26:25;29.87;;;16.47;;
21402;SDS011;10862;51.886;17.078;2022-11-20T06:28:52;50.83;;;23.37;;
21402;SDS011;10862;51.886;17.078;2022-11-20T06:31:19;30.27;;;20.10;;
21402;SDS011;10862;51.886;17.078;2022-11-20T06:33:47;37.20;;;20.77;;
21402;SDS011;10862;51.886;17.078;2022-11-20T06:36:13;44.07;;;19.90;;
21402;SDS011;10862;51.886;17.078;2022-11-20T06:38:41;31.20;;;16.73;;
21402;SDS011;10862;51.886;17.078;2022-11-20T06:41:08;29.33;;;18.70;;
21402;SDS011;10862;51.886;17.078;2022-11-20T06:43:36;22.33;;;14.77;;
21402;SDS011;10862;51.886;17.078;2022-11-20T06:46:02;34.87;;;21.13;;
21402;SDS011;10862;51.886;17.078;2022-11-20T06:48:27;34.20;;;21.93;;
21402;SDS011;10862;51.886;17.078;2022-11-20T06:50:53;44.00;;;23.77;;
21402;SDS011;10862;51.886;17.078;2022-11-20T06:53:19;40.97;;;18.47;;
21402;SDS011;10862;51.886;17.078;2022-11-20T06:55:46;35.20;;;19.00;;
21402;SDS011;10862;51.886;17.078;2022-11-20T06:58:13;30.30;;;18.17;;
21402;SDS011;10862;51.886;17.078;2022-11-20T07:00:40;56.20;;;25.67;;
21402;SDS011;10862;51.886;17.078;2022-11-20T07:03:07;70.00;;;31.37;;
21402;SDS011;10862;51.886;17.078;2022-11-20T07:05:34;41.03;;;21.77;;
21402;SDS011;10862;51.886;17.078;2022-11-20T07:08:00;61.47;;;26.57;;
21402;SDS011;10862;51.886;17.078;2022-11-20T07:10:27;45.43;;;24.33;;
21402;SDS011;10862;51.886;17.078;2022-11-20T07:12:52;42.77;;;22.23;;
21402;SDS011;10862;51.886;17.078;2022-11-20T07:15:19;44.77;;;25.20;;
21402;SDS011;10862;51.886;17.078;2022-11-20T07:17:46;42.63;;;23.47;;
21402;SDS011;10862;51.886;17.078;2022-11-20T07:20:12;31.63;;;18.97;;
21402;SDS011;10862;51.886;17.078;2022-11-20T07:22:38;42.83;;;20.97;;
21402;SDS011;10862;51.886;17.078;2022-11-20T07:25:04;53.67;;;24.77;;
21402;SDS011;10862;51.886;17.078;2022-11-20T07:27:31;58.37;;;26.63;;
21402;SDS011;10862;51.886;17.078;2022-11-20T07:29:57;71.20;;;29.80;;
21402;SDS011;10862;51.886;17.078;2022-11-20T07:32:22;39.53;;;20.63;;
21402;SDS011;10862;51.886;17.078;2022-11-20T07:34:48;49.37;;;23.77;;
21402;SDS011;10862;51.886;17.078;2022-11-20T07:37:14;43.47;;;21.47;;
21402;SDS011;10862;51.886;17.078;2022-11-20T07:39:40;50.57;;;25.77;;
21402;SDS011;10862;51.886;17.078;2022-11-20T07:42:06;45.70;;;24.57;;
21402;SDS011;10862;51.886;17.078;2022-11-20T07:44:32;45.73;;;27.10;;
21402;SDS011;10862;51.886;17.078;2022-11-20T07:46:58;87.73;;;36.00;;
21402;SDS011;10862;51.886;17.078;2022-11-20T07:49:23;59.37;;;29.07;;
21402;SDS011;10862;51.886;17.078;2022-11-20T07:51:52;56.30;;;27.40;;
21402;SDS011;10862;51.886;17.078;2022-11-20T07:54:18;55.23;;;28.33;;
21402;SDS011;10862;51.886;17.078;2022-11-20T07:56:44;73.27;;;34.00;;
21402;SDS011;10862;51.886;17.078;2022-11-20T07:59:10;62.10;;;30.10;;
21402;SDS011;10862;51.886;17.078;2022-11-20T08:01:36;57.50;;;29.47;;
21402;SDS011;10862;51.886;17.078;2022-11-20T08:04:02;73.57;;;31.73;;
21402;SDS011;10862;51.886;17.078;2022-11-20T08:06:28;70.37;;;32.20;;
21402;SDS011;10862;51.886;17.078;2022-11-20T08:08:53;59.67;;;28.57;;
21402;SDS011;10862;51.886;17.078;2022-11-20T08:11:19;47.40;;;26.13;;
21402;SDS011;10862;51.886;17.078;2022-11-20T08:14:03;59.77;;;30.13;;
21402;SDS011;10862;51.886;17.078;2022-11-20T08:16:41;56.30;;;26.67;;
21402;SDS011;10862;51.886;17.078;2022-11-20T08:19:14;59.17;;;30.23;;
21402;SDS011;10862;51.886;17.078;2022-11-20T08:21:40;60.13;;;28.37;;
21402;SDS011;10862;51.886;17.078;2022-11-20T08:24:06;50.77;;;27.30;;
21402;SDS011;10862;51.886;17.078;2022-11-20T08:26:33;57.07;;;29.07;;
21402;SDS011;10862;51.886;17.078;2022-11-20T08:28:59;44.93;;;23.40;;
21402;SDS011;10862;51.886;17.078;2022-11-20T08:31:26;78.20;;;33.07;;
21402;SDS011;10862;51.886;17.078;2022-11-20T08:33:52;55.27;;;29.83;;
21402;SDS011;10862;51.886;17.078;2022-11-20T08:36:18;92.80;;;42.80;;
21402;SDS011;10862;51.886;17.078;2022-11-20T08:38:52;67.70;;;34.47;;
21402;SDS011;10862;51.886;17.078;2022-11-20T08:41:19;59.73;;;32.03;;
21402;SDS011;10862;51.886;17.078;2022-11-20T08:46:26;68.83;;;37.57;;
21402;SDS011;10862;51.886;17.078;2022-11-20T08:49:02;58.60;;;32.03;;
21402;SDS011;10862;51.886;17.078;2022-11-20T08:51:29;74.37;;;39.77;;
21402;SDS011;10862;51.886;17.078;2022-11-20T08:53:54;88.60;;;47.43;;
21402;SDS011;10862;51.886;17.078;2022-11-20T08:56:20;70.43;;;42.60;;
21402;SDS011;10862;51.886;17.078;2022-11-20T08:58:46;93.17;;;45.47;;
21402;SDS011;10862;51.886;17.078;2022-11-20T09:01:11;48.10;;;27.90;;
21402;SDS011;10862;51.886;17.078;2022-11-20T09:03:37;47.20;;;29.93;;
21402;SDS011;10862;51.886;17.078;2022-11-20T09:06:03;62.17;;;35.20;;
21402;SDS011;10862;51.886;17.078;2022-11-20T09:08:30;58.27;;;30.83;;
21402;SDS011;10862;51.886;17.078;2022-11-20T09:10:57;70.40;;;32.87;;
21402;SDS011;10862;51.886;17.078;2022-11-20T09:13:23;68.93;;;37.00;;
21402;SDS011;10862;51.886;17.078;2022-11-20T09:15:56;59.07;;;32.53;;
21402;SDS011;10862;51.886;17.078;2022-11-20T09:18:24;57.23;;;29.47;;
21402;SDS011;10862;51.886;17.078;2022-11-20T09:20:50;79.10;;;36.00;;
21402;SDS011;10862;51.886;17.078;2022-11-20T09:23:16;77.80;;;34.80;;
21402;SDS011;10862;51.886;17.078;2022-11-20T09:25:42;120.87;;;42.87;;
21402;SDS011;10862;51.886;17.078;2022-11-20T09:28:08;101.23;;;34.77;;
21402;SDS011;10862;51.886;17.078;2022-11-20T09:30:34;106.70;;;44.17;;
21402;SDS011;10862;51.886;17.078;2022-11-20T09:33:00;76.23;;;35.53;;
21402;SDS011;10862;51.886;17.078;2022-11-20T09:35:26;80.23;;;34.93;;
21402;SDS011;10862;51.886;17.078;2022-11-20T09:37:52;78.30;;;35.60;;
21402;SDS011;10862;51.886;17.078;2022-11-20T09:40:24;106.67;;;40.77;;
21402;SDS011;10862;51.886;17.078;2022-11-20T09:56:39;199.10;;;72.63;;
21402;SDS011;10862;51.886;17.078;2022-11-20T09:59:07;71.73;;;32.87;;
21402;SDS011;10862;51.886;17.078;2022-11-20T10:01:57;172.13;;;73.47;;
21402;SDS011;10862;51.886;17.078;2022-11-20T10:04:24;169.40;;;81.30;;
21402;SDS011;10862;51.886;17.078;2022-11-20T10:09:22;172.37;;;85.80;;
21402;SDS011;10862;51.886;17.078;2022-11-20T10:12:04;81.97;;;36.37;;
21402;SDS011;10862;51.886;17.078;2022-11-20T10:20:36;124.47;;;49.57;;
21402;SDS011;10862;51.886;17.078;2022-11-20T10:25:39;92.10;;;43.17;;
21402;SDS011;10862;51.886;17.078;2022-11-20T10:28:27;129.13;;;53.13;;
21402;SDS011;10862;51.886;17.078;2022-11-20T10:31:04;114.03;;;49.30;;
21402;SDS011;10862;51.886;17.078;2022-11-20T10:33:37;130.70;;;47.33;;
21402;SDS011;10862;51.886;17.078;2022-11-20T10:36:08;191.23;;;64.00;;
21402;SDS011;10862;51.886;17.078;2022-11-20T10:38:43;208.07;;;72.63;;
21402;SDS011;10862;51.886;17.078;2022-11-20T10:41:32;154.13;;;58.83;;
21402;SDS011;10862;51.886;17.078;2022-11-20T10:44:04;59.37;;;29.53;;
21402;SDS011;10862;51.886;17.078;2022-11-20T10:46:39;53.20;;;32.10;;
21402;SDS011;10862;51.886;17.078;2022-11-20T10:49:14;164.97;;;93.30;;
21402;SDS011;10862;51.886;17.078;2022-11-20T10:51:46;70.97;;;37.47;;
21402;SDS011;10862;51.886;17.078;2022-11-20T10:57:24;152.10;;;56.83;;
21402;SDS011;10862;51.886;17.078;2022-11-20T11:00:16;63.40;;;37.07;;
21402;SDS011;10862;51.886;17.078;2022-11-20T11:02:49;50.47;;;27.03;;
21402;SDS011;10862;51.886;17.078;2022-11-20T11:07:55;74.83;;;35.37;;
21402;SDS011;10862;51.886;17.078;2022-11-20T11:10:24;101.80;;;45.03;;
21402;SDS011;10862;51.886;17.078;2022-11-20T11:13:01;102.10;;;49.27;;
21402;SDS011;10862;51.886;17.078;2022-11-20T11:15:28;75.43;;;34.63;;
21402;SDS011;10862;51.886;17.078;2022-11-20T11:17:53;77.97;;;31.33;;
21402;SDS011;10862;51.886;17.078;2022-11-20T11:20:20;72.00;;;36.80;;
21402;SDS011;10862;51.886;17.078;2022-11-20T11:22:52;64.17;;;31.90;;
21402;SDS011;10862;51.886;17.078;2022-11-20T11:25:24;52.43;;;28.00;;
21402;SDS011;10862;51.886;17.078;2022-11-20T11:30:47;105.37;;;45.10;;
21402;SDS011;10862;51.886;17.078;2022-11-20T11:33:19;117.53;;;51.77;;
21402;SDS011;10862;51.886;17.078;2022-11-20T11:35:56;101.23;;;45.77;;
21402;SDS011;10862;51.886;17.078;2022-11-20T11:38:29;99.03;;;41.47;;
21402;SDS011;10862;51.886;17.078;2022-11-20T11:40:59;114.80;;;51.10;;
21402;SDS011;10862;51.886;17.078;2022-11-20T11:43:26;90.47;;;41.57;;
21402;SDS011;10862;51.886;17.078;2022-11-20T11:49:45;114.73;;;47.77;;
21402;SDS011;10862;51.886;17.078;2022-11-20T11:51:56;103.17;;;39.60;;
21402;SDS011;10862;51.886;17.078;2022-11-20T12:00:12;55.63;;;28.03;;
21402;SDS011;10862;51.886;17.078;2022-11-20T12:05:16;54.53;;;29.40;;
21402;SDS011;10862;51.886;17.078;2022-11-20T12:10:36;99.70;;;45.60;;
21402;SDS011;10862;51.886;17.078;2022-11-20T12:13:18;78.10;;;42.40;;
21402;SDS011;10862;51.886;17.078;2022-11-20T12:16:02;100.20;;;41.37;;
21402;SDS011;10862;51.886;17.078;2022-11-20T12:18:29;97.77;;;43.07;;
21402;SDS011;10862;51.886;17.078;2022-11-20T12:23:51;153.83;;;64.10;;
21402;SDS011;10862;51.886;17.078;2022-11-20T12:26:35;132.27;;;54.17;;
21402;SDS011;10862;51.886;17.078;2022-11-20T12:31:58;79.17;;;36.77;;
21402;SDS011;10862;51.886;17.078;2022-11-20T12:37:30;122.30;;;56.43;;
21402;SDS011;10862;51.886;17.078;2022-11-20T12:40:09;74.80;;;36.17;;
21402;SDS011;10862;51.886;17.078;2022-11-20T12:42:54;64.13;;;28.70;;
21402;SDS011;10862;51.886;17.078;2022-11-20T12:45:54;56.73;;;30.57;;
21402;SDS011;10862;51.886;17.078;2022-11-20T12:48:52;54.60;;;29.93;;
21402;SDS011;10862;51.886;17.078;2022-11-20T12:51:32;25.43;;;17.27;;
21402;SDS011;10862;51.886;17.078;2022-11-20T12:56:55;28.07;;;18.73;;
21402;SDS011;10862;51.886;17.078;2022-11-20T13:01:59;103.77;;;34.77;;
21402;SDS011;10862;51.886;17.078;2022-11-20T13:07:10;54.93;;;28.20;;
21402;SDS011;10862;51.886;17.078;2022-11-20T13:09:46;70.10;;;46.03;;
21402;SDS011;10862;51.886;17.078;2022-11-20T13:12:15;46.43;;;29.73;;
21402;SDS011;10862;51.886;17.078;2022-11-20T13:14:46;61.87;;;42.53;;
21402;SDS011;10862;51.886;17.078;2022-11-20T13:17:28;52.87;;;32.40;;
21402;SDS011;10862;51.886;17.078;2022-11-20T13:20:01;32.93;;;21.17;;
21402;SDS011;10862;51.886;17.078;2022-11-20T13:22:42;49.43;;;26.70;;
21402;SDS011;10862;51.886;17.078;2022-11-20T13:25:24;61.67;;;30.23;;
21402;SDS011;10862;51.886;17.078;2022-11-20T13:27:55;87.80;;;42.07;;
21402;SDS011;10862;51.886;17.078;2022-11-20T13:30:23;52.60;;;28.67;;
21402;SDS011;10862;51.886;17.078;2022-11-20T13:33:09;71.10;;;33.63;;
21402;SDS011;10862;51.886;17.078;2022-11-20T13:35:55;86.40;;;37.03;;
21402;SDS011;10862;51.886;17.078;2022-11-20T13:38:24;76.47;;;33.07;;
21402;SDS011;10862;51.886;17.078;2022-11-20T13:40:54;73.83;;;34.07;;
21402;SDS011;10862;51.886;17.078;2022-11-20T13:43:34;66.83;;;30.67;;
21402;SDS011;10862;51.886;17.078;2022-11-20T13:46:03;52.03;;;24.37;;
21402;SDS011;10862;51.886;17.078;2022-11-20T13:48:48;46.80;;;22.57;;
21402;SDS011;10862;51.886;17.078;2022-11-20T13:51:24;59.97;;;31.80;;
21402;SDS011;10862;51.886;17.078;2022-11-20T13:57:16;60.30;;;25.40;;
21402;SDS011;10862;51.886;17.078;2022-11-20T14:00:05;29.07;;;18.67;;
21402;SDS011;10862;51.886;17.078;2022-11-20T14:02:40;54.33;;;29.20;;
21402;SDS011;10862;51.886;17.078;2022-11-20T14:05:11;97.17;;;44.87;;
21402;SDS011;10862;51.886;17.078;2022-11-20T14:07:47;138.67;;;57.20;;
21402;SDS011;10862;51.886;17.078;2022-11-20T14:10:25;167.23;;;64.90;;
21402;SDS011;10862;51.886;17.078;2022-11-20T14:12:52;248.60;;;82.03;;
21402;SDS011;10862;51.886;17.078;2022-11-20T14:17:54;194.17;;;63.07;;
21402;SDS011;10862;51.886;17.078;2022-11-20T14:20:20;146.77;;;52.10;;
21402;SDS011;10862;51.886;17.078;2022-11-20T14:22:51;226.73;;;71.07;;
21402;SDS011;10862;51.886;17.078;2022-11-20T14:25:19;215.47;;;72.07;;
21402;SDS011;10862;51.886;17.078;2022-11-20T14:27:55;140.60;;;53.43;;
21402;SDS011;10862;51.886;17.078;2022-11-20T14:33:23;1028.07;;;434.60;;
21402;SDS011;10862;51.886;17.078;2022-11-20T14:35:52;678.20;;;230.33;;
21402;SDS011;10862;51.886;17.078;2022-11-20T14:38:23;514.97;;;149.70;;
21402;SDS011;10862;51.886;17.078;2022-11-20T14:40:51;427.70;;;117.73;;
21402;SDS011;10862;51.886;17.078;2022-11-20T14:46:05;510.57;;;152.33;;
21402;SDS011;10862;51.886;17.078;2022-11-20T14:48:43;404.80;;;119.23;;
21402;SDS011;10862;51.886;17.078;2022-11-20T14:51:22;481.10;;;148.53;;
21402;SDS011;10862;51.886;17.078;2022-11-20T14:53:51;300.20;;;103.60;;
21402;SDS011;10862;51.886;17.078;2022-11-20T14:56:23;428.67;;;146.23;;
21402;SDS011;10862;51.886;17.078;2022-11-20T14:58:55;493.00;;;176.67;;
21402;SDS011;10862;51.886;17.078;2022-11-20T15:01:25;296.27;;;102.10;;
21402;SDS011;10862;51.886;17.078;2022-11-20T15:03:59;339.93;;;120.17;;
21402;SDS011;10862;51.886;17.078;2022-11-20T15:06:32;215.47;;;77.97;;
21402;SDS011;10862;51.886;17.078;2022-11-20T15:08:58;203.43;;;76.67;;
21402;SDS011;10862;51.886;17.078;2022-11-20T15:11:30;281.73;;;104.27;;
21402;SDS011;10862;51.886;17.078;2022-11-20T15:13:58;311.47;;;113.23;;
21402;SDS011;10862;51.886;17.078;2022-11-20T15:16:29;261.77;;;99.83;;
21402;SDS011;10862;51.886;17.078;2022-11-20T15:18:55;204.57;;;85.30;;
21402;SDS011;10862;51.886;17.078;2022-11-20T15:21:21;100.73;;;51.73;;
21402;SDS011;10862;51.886;17.078;2022-11-20T15:23:47;117.53;;;59.63;;
21402;SDS011;10862;51.886;17.078;2022-11-20T15:26:15;102.27;;;47.93;;
21402;SDS011;10862;51.886;17.078;2022-11-20T15:28:49;179.70;;;56.77;;
21402;SDS011;10862;51.886;17.078;2022-11-20T15:31:16;268.93;;;77.67;;
21402;SDS011;10862;51.886;17.078;2022-11-20T15:33:46;192.23;;;56.20;;
21402;SDS011;10862;51.886;17.078;2022-11-20T15:36:12;202.17;;;66.97;;
21402;SDS011;10862;51.886;17.078;2022-11-20T15:38:38;164.40;;;49.83;;
21402;SDS011;10862;51.886;17.078;2022-11-20T15:41:04;272.07;;;92.90;;
21402;SDS011;10862;51.886;17.078;2022-11-20T15:43:29;260.57;;;97.37;;
21402;SDS011;10862;51.886;17.078;2022-11-20T15:45:56;411.63;;;182.10;;